Time;durP1;ratioP1;P1;durP2;ratioP2;P2;SDS_P1;SDS_P2;PMS_P1;PMS_P2;Temp;Humidity;BMP_temperature;BMP_pressure;BME280_temperature;BME280_humidity;BME280_pressure;Samples;Min_cycle;Max_cycle;Signal;HPM_P1;HPM_P2
2023/06/24 00:02:08;;;;;;;10.02;5.05;;;;;;;-143.48;70.31;118439.88;5035219;28;20397;-74
2023/06/24 00:04:34;;;;;;;8.63;5.10;;;;;;;-143.48;68.83;118439.88;5017475;28;20029;-74
2023/06/24 00:07:00;;;;;;;9.07;5.60;;;;;;;-143.48;68.58;118439.88;5035273;28;20021;-74
2023/06/24 00:09:29;;;;;;;7.22;5.10;;;;;;;-143.48;69.56;118439.88;5017346;28;20025;-74
2023/06/24 00:11:55;;;;;;;12.43;5.13;;;;;;;-143.48;70.50;118439.88;5035248;28;20029;-74
2023/06/24 00:14:23;;;;;;;8.68;5.38;;;;;;;-143.48;68.92;118439.88;5017168;28;20365;-74
2023/06/24 00:16:51;;;;;;;8.05;5.03;;;;;;;-143.48;71.09;118439.88;5035223;28;20025;-74
2023/06/24 00:19:20;;;;;;;9.95;5.40;;;;;;;-143.48;71.61;118439.88;5017260;28;20029;-74
2023/06/24 00:21:52;;;;;;;9.90;5.95;;;;;;;-143.48;69.65;118439.88;5034797;28;20021;-74
2023/06/24 00:24:19;;;;;;;9.60;5.53;;;;;;;-143.48;71.09;118439.88;5016871;28;20033;-74
2023/06/24 00:26:46;;;;;;;9.75;5.80;;;;;;;-143.48;72.10;118439.88;5034890;28;20021;-74
2023/06/24 00:29:11;;;;;;;8.63;5.60;;;;;;;-143.48;72.48;118439.88;5035032;28;20108;-74
2023/06/24 00:31:36;;;;;;;11.52;5.40;;;;;;;-143.48;70.18;118439.88;5016972;28;20101;-74
2023/06/24 00:34:02;;;;;;;11.85;5.80;;;;;;;-143.48;68.91;118439.88;5016813;28;20040;-74
2023/06/24 00:36:27;;;;;;;11.80;5.63;;;;;;;-143.48;69.94;118439.88;5034462;28;20025;-74
2023/06/24 00:38:52;;;;;;;9.15;6.18;;;;;;;-143.48;70.64;118439.88;5034567;28;20117;-74
2023/06/24 00:41:18;;;;;;;9.23;5.93;;;;;;;-143.48;71.88;118439.88;5034360;28;20038;-74
2023/06/24 00:43:45;;;;;;;9.98;6.05;;;;;;;-143.48;71.40;118439.88;5034328;28;20388;-74
2023/06/24 00:46:10;;;;;;;10.20;6.00;;;;;;;-143.48;73.48;118439.88;5034347;28;20021;-74
2023/06/24 00:48:36;;;;;;;11.00;6.00;;;;;;;-143.48;73.34;118439.88;5034275;28;20104;-74
2023/06/24 00:51:01;;;;;;;10.15;5.68;;;;;;;-143.48;72.58;118439.88;5016520;28;20083;-74
2023/06/24 00:53:27;;;;;;;9.95;5.93;;;;;;;-143.48;72.11;118439.88;5034776;28;20434;-74
2023/06/24 00:55:54;;;;;;;8.00;6.05;;;;;;;-143.48;72.99;118439.88;5034559;28;20025;-75
2023/06/24 00:58:20;;;;;;;11.00;6.00;;;;;;;-143.48;73.14;118439.88;5015889;28;20432;-74
2023/06/24 01:00:48;;;;;;;9.10;5.57;;;;;;;-143.48;70.80;118439.88;5016227;28;20076;-74
2023/06/24 01:03:13;;;;;;;9.45;5.63;;;;;;;-143.48;70.28;118439.88;5016670;28;20067;-74
2023/06/24 01:05:40;;;;;;;9.95;6.00;;;;;;;-143.48;72.24;118439.88;5034286;28;20465;-75
2023/06/24 01:08:06;;;;;;;11.73;5.90;;;;;;;-143.48;73.52;118439.88;5034253;28;20025;-74
2023/06/24 01:10:31;;;;;;;10.23;6.03;;;;;;;-143.48;74.35;118439.88;5016416;28;20052;-74
2023/06/24 01:12:57;;;;;;;11.68;6.25;;;;;;;-143.48;74.06;118439.88;5016271;28;20059;-74
2023/06/24 01:15:23;;;;;;;10.70;6.25;;;;;;;-143.48;74.58;118439.88;5034641;28;20033;-74
2023/06/24 01:18:22;;;;;;;8.68;6.20;;;;;;;-143.48;75.75;118439.88;5034078;28;20036;-74
2023/06/24 01:20:49;;;;;;;7.78;5.60;;;;;;;-143.48;73.99;118439.88;5034261;28;20092;-74
2023/06/24 01:23:33;;;;;;;8.80;6.03;;;;;;;-143.48;75.26;118439.88;5016162;28;20489;-74
2023/06/24 01:26:29;;;;;;;9.15;5.90;;;;;;;-143.48;76.34;118439.88;5016368;28;20032;-74
2023/06/24 01:29:17;;;;;;;11.57;6.20;;;;;;;-143.48;77.04;118439.88;5015937;28;20087;-74
2023/06/24 01:31:52;;;;;;;8.82;5.50;;;;;;;-143.48;75.76;118439.88;5042244;28;20026;-74
2023/06/24 01:34:17;;;;;;;7.45;5.00;;;;;;;-143.48;75.43;118439.88;5015899;28;20032;-74
2023/06/24 01:36:54;;;;;;;7.80;5.15;;;;;;;-143.48;76.47;118439.88;5033460;28;20384;-75
2023/06/24 01:39:22;;;;;;;8.68;5.45;;;;;;;-143.48;76.28;118439.88;5015717;28;20068;-74
2023/06/24 01:42:00;;;;;;;5.97;4.38;;;;;;;-143.48;72.57;118439.88;5033440;28;20060;-74
2023/06/24 01:44:27;;;;;;;6.65;4.80;;;;;;;-143.48;74.75;118439.88;5015791;28;20392;-74
2023/06/24 01:46:57;;;;;;;6.82;4.75;;;;;;;-143.48;75.84;118439.88;5033379;28;20081;-74
2023/06/24 01:49:24;;;;;;;6.45;4.57;;;;;;;-143.48;75.78;118439.88;5015577;28;20029;-74
2023/06/24 01:51:50;;;;;;;9.23;4.60;;;;;;;-143.48;73.48;118439.88;5015564;28;20138;-74
2023/06/24 01:54:22;;;;;;;6.13;3.95;;;;;;;-143.48;74.04;118439.88;5033482;28;20556;-74
2023/06/24 01:56:49;;;;;;;7.18;4.10;;;;;;;-143.48;72.99;118439.88;5034092;28;20109;-74
2023/06/24 01:59:17;;;;;;;4.90;3.47;;;;;;;-143.48;71.67;118439.88;5033440;28;20420;-74
2023/06/24 02:01:44;;;;;;;5.47;3.40;;;;;;;-143.48;69.85;118439.88;5015269;28;20024;-74
2023/06/24 02:04:11;;;;;;;5.07;3.10;;;;;;;-143.48;69.43;118439.88;5033090;28;20029;-74
2023/06/24 02:06:40;;;;;;;5.07;3.00;;;;;;;-143.48;69.23;118439.88;5015735;28;20067;-74
2023/06/24 02:09:08;;;;;;;5.93;3.20;;;;;;;-143.48;67.77;118439.88;5015631;28;20022;-74
2023/06/24 02:11:35;;;;;;;5.82;3.00;;;;;;;-143.48;68.77;118439.88;5036782;28;20104;-74
2023/06/24 02:14:03;;;;;;;4.70;2.80;;;;;;;-143.48;70.12;118439.88;5037255;28;20034;-74
2023/06/24 02:16:29;;;;;;;4.85;2.83;;;;;;;-143.48;70.33;118439.88;5019721;28;20021;-74
2023/06/24 02:18:56;;;;;;;4.97;3.00;;;;;;;-143.48;71.11;118439.88;5037066;28;20124;-74
2023/06/24 02:21:23;;;;;;;5.10;3.28;;;;;;;-143.48;70.26;118439.88;5019179;28;20123;-74
2023/06/24 02:23:49;;;;;;;3.60;2.70;;;;;;;-143.48;68.30;118439.88;5019261;28;20021;-74
2023/06/24 02:26:16;;;;;;;5.13;2.92;;;;;;;-143.48;68.56;118439.88;5019279;28;20029;-74
2023/06/24 02:28:43;;;;;;;4.60;2.70;;;;;;;-143.48;67.44;118439.88;5036916;28;20046;-74
2023/06/24 02:31:10;;;;;;;5.75;2.83;;;;;;;-143.48;67.90;118439.88;5018950;28;20045;-75
2023/06/24 02:33:36;;;;;;;4.35;2.80;;;;;;;-143.48;68.51;118439.88;5019103;28;20033;-75
2023/06/24 02:36:01;;;;;;;4.93;2.97;;;;;;;-143.48;69.54;118439.88;5036832;28;20018;-74
2023/06/24 02:38:27;;;;;;;6.13;3.05;;;;;;;-143.48;70.28;118439.88;5018882;28;20025;-75
2023/06/24 02:40:52;;;;;;;7.50;2.80;;;;;;;-143.48;70.49;118439.88;5018936;28;20108;-74
2023/06/24 02:43:18;;;;;;;5.47;2.88;;;;;;;-143.48;71.21;118439.88;5036566;28;20052;-75
2023/06/24 02:45:45;;;;;;;6.22;2.80;;;;;;;-143.48;70.81;118439.88;5019079;28;20123;-74
2023/06/24 02:48:12;;;;;;;6.57;2.92;;;;;;;-143.48;70.09;118439.88;5018628;28;20036;-74
2023/06/24 02:50:40;;;;;;;5.93;3.00;;;;;;;-143.48;70.27;118439.88;5002584;28;20499;-74
2023/06/24 02:53:06;;;;;;;4.97;2.80;;;;;;;-143.48;69.97;118439.88;5036562;28;20393;-75
2023/06/24 02:55:33;;;;;;;4.97;2.80;;;;;;;-143.48;71.21;118439.88;5018483;28;20021;-74
2023/06/24 02:57:59;;;;;;;4.70;2.60;;;;;;;-143.48;71.17;118439.88;5036222;28;20029;-75
2023/06/24 03:00:25;;;;;;;5.90;2.95;;;;;;;-143.48;72.45;118439.88;5018511;28;20031;-74
2023/06/24 03:02:51;;;;;;;4.75;2.55;;;;;;;-143.48;72.50;118439.88;5018360;28;20030;-74
2023/06/24 03:05:18;;;;;;;5.10;3.00;;;;;;;-143.48;71.65;118439.88;5036189;28;20505;-74
2023/06/24 03:07:45;;;;;;;4.30;3.03;;;;;;;-143.48;72.64;118439.88;5036203;28;20148;-74
2023/06/24 03:10:10;;;;;;;6.40;2.63;;;;;;;-143.48;71.02;118439.88;5018483;28;20033;-75
2023/06/24 03:12:36;;;;;;;4.22;2.97;;;;;;;-143.48;72.05;118439.88;5035889;28;20369;-75
2023/06/24 03:15:01;;;;;;;5.57;3.40;;;;;;;-143.48;74.05;118439.88;5018252;28;20022;-74
2023/06/24 03:17:27;;;;;;;6.47;4.00;;;;;;;-143.48;75.91;118439.88;5018073;28;20025;-74
2023/06/24 03:19:52;;;;;;;8.35;4.28;;;;;;;-143.48;77.39;118439.88;5018064;28;20021;-74
2023/06/24 03:22:18;;;;;;;6.07;4.28;;;;;;;-143.48;78.25;118439.88;5017146;28;20090;-74
2023/06/24 03:24:43;;;;;;;8.70;4.50;;;;;;;-143.48;78.32;118439.88;5035765;28;20021;-74
2023/06/24 03:27:09;;;;;;;7.15;4.47;;;;;;;-143.48;78.88;118439.88;5017912;28;20025;-74
2023/06/24 03:29:34;;;;;;;5.75;4.00;;;;;;;-143.48;78.09;118439.88;5017780;28;20511;-74
2023/06/24 03:32:00;;;;;;;6.10;4.30;;;;;;;-143.48;78.06;118439.88;5017818;28;20027;-74
2023/06/24 03:34:27;;;;;;;5.50;3.70;;;;;;;-143.48;78.50;118439.88;5035473;28;20041;-74
2023/06/24 03:36:55;;;;;;;6.60;4.50;;;;;;;-143.48;77.52;118439.88;5035207;28;20025;-74
2023/06/24 03:39:20;;;;;;;6.78;4.32;;;;;;;-143.48;76.64;118439.88;5016812;28;20032;-75
2023/06/24 03:41:46;;;;;;;4.88;3.80;;;;;;;-143.48;76.34;118439.88;5035426;28;20021;-74
2023/06/24 03:44:12;;;;;;;7.03;4.45;;;;;;;-143.48;77.38;118439.88;5017619;28;20370;-74
2023/06/24 03:46:37;;;;;;;7.38;4.63;;;;;;;-143.48;76.40;118439.88;5017555;28;20052;-74
2023/06/24 03:49:03;;;;;;;9.32;4.60;;;;;;;-143.48;76.09;118439.88;5017470;28;20477;-74
2023/06/24 03:51:28;;;;;;;6.50;4.22;;;;;;;-143.48;75.67;118439.88;5035188;28;20013;-74
2023/06/24 03:53:53;;;;;;;7.28;4.28;;;;;;;-143.48;74.99;118439.88;5017336;28;20025;-74
2023/06/24 03:56:19;;;;;;;7.63;4.55;;;;;;;-143.48;75.94;118439.88;5035314;28;20135;-74
2023/06/24 03:58:44;;;;;;;8.35;4.43;;;;;;;-143.48;76.82;118439.88;5016980;28;20463;-74
2023/06/24 04:01:10;;;;;;;7.68;4.35;;;;;;;-143.48;76.85;118439.88;5017214;28;20075;-74
2023/06/24 04:03:35;;;;;;;10.75;4.10;;;;;;;-143.48;77.38;118439.88;5035008;28;20030;-74
2023/06/24 04:06:04;;;;;;;7.38;4.47;;;;;;;-143.48;76.37;118439.88;5017211;28;20021;-74
2023/06/24 04:08:29;;;;;;;7.93;5.25;;;;;;;-143.48;76.08;118439.88;5034828;28;20017;-74
2023/06/24 04:10:55;;;;;;;8.57;5.38;;;;;;;-143.48;73.84;118439.88;5035319;28;20428;-74
2023/06/24 04:13:21;;;;;;;8.30;5.43;;;;;;;-143.48;74.44;118439.88;5017338;28;20021;-74
2023/06/24 04:15:46;;;;;;;11.32;5.90;;;;;;;-143.48;73.77;118439.88;5017034;28;20027;-74
2023/06/24 04:18:11;;;;;;;13.35;6.75;;;;;;;-143.48;73.75;118439.88;5034798;28;20033;-74
2023/06/24 04:20:37;;;;;;;13.65;6.82;;;;;;;-143.48;74.71;118439.88;5034702;28;20021;-74
2023/06/24 04:23:05;;;;;;;10.50;6.63;;;;;;;-143.48;74.89;118439.88;5016899;28;20420;-74
2023/06/24 04:25:30;;;;;;;9.18;6.40;;;;;;;-143.48;75.30;118439.88;5017224;28;20024;-75
2023/06/24 04:27:57;;;;;;;10.68;6.53;;;;;;;-143.48;73.81;118439.88;5016767;28;20112;-74
2023/06/24 04:30:22;;;;;;;13.80;7.07;;;;;;;-143.48;74.23;118439.88;5016719;28;20049;-75
2023/06/24 04:32:47;;;;;;;10.10;6.78;;;;;;;-143.48;73.62;118439.88;5016707;28;20084;-75
2023/06/24 04:35:16;;;;;;;12.27;6.70;;;;;;;-143.48;73.52;118439.88;5034933;28;20033;-75
2023/06/24 04:37:41;;;;;;;11.38;6.47;;;;;;;-143.48;75.27;118439.88;5018079;28;20485;-75
2023/06/24 04:40:07;;;;;;;8.90;5.97;;;;;;;-143.48;73.51;118439.88;5017361;28;20072;-75
2023/06/24 04:42:33;;;;;;;11.32;6.20;;;;;;;-143.48;72.98;118439.88;5034536;28;20029;-74
2023/06/24 04:44:58;;;;;;;8.73;5.95;;;;;;;-143.48;71.62;118439.88;5034298;28;20060;-75
2023/06/24 04:47:23;;;;;;;11.05;5.78;;;;;;;-143.48;71.49;118439.88;5016426;28;20053;-75
2023/06/24 04:49:49;;;;;;;8.90;5.63;;;;;;;-143.48;72.08;118439.88;5034071;28;20480;-75
2023/06/24 04:52:14;;;;;;;12.85;6.00;;;;;;;-143.48;73.10;118439.88;5034340;28;20389;-75
2023/06/24 04:54:40;;;;;;;11.40;5.63;;;;;;;-143.48;72.32;118439.88;5034037;28;20362;-75
2023/06/24 04:57:09;;;;;;;8.57;5.60;;;;;;;-143.48;72.28;118439.88;5016246;28;20108;-75
2023/06/24 04:59:34;;;;;;;11.13;5.32;;;;;;;-143.48;71.66;118439.88;5033895;28;20469;-75
2023/06/24 05:01:59;;;;;;;7.60;5.40;;;;;;;-143.48;70.64;118439.88;5033963;28;20026;-75
2023/06/24 05:04:25;;;;;;;8.57;5.10;;;;;;;-143.48;69.94;118439.88;5033905;28;20552;-75
2023/06/24 05:06:50;;;;;;;11.10;5.47;;;;;;;-143.48;69.93;118439.88;5034224;28;20021;-76
2023/06/24 05:09:15;;;;;;;8.30;5.07;;;;;;;-143.48;69.54;118439.88;5016128;28;20079;-76
2023/06/24 05:11:41;;;;;;;8.80;5.03;;;;;;;-143.48;69.30;118439.88;5033879;28;20075;-76
2023/06/24 05:14:07;;;;;;;7.88;4.68;;;;;;;-143.48;67.75;118439.88;5033913;28;20415;-75
2023/06/24 05:16:32;;;;;;;8.30;4.97;;;;;;;-143.48;63.61;118439.88;5016028;28;20021;-76
2023/06/24 05:18:58;;;;;;;9.07;4.75;;;;;;;-143.48;65.82;118439.88;5033680;28;20036;-76
2023/06/24 05:21:23;;;;;;;8.52;5.10;;;;;;;-143.48;67.29;118439.88;5015777;28;20025;-76
2023/06/24 05:23:48;;;;;;;10.30;4.88;;;;;;;-143.48;67.14;118439.88;5015857;28;20025;-75
2023/06/24 05:26:14;;;;;;;10.48;4.68;;;;;;;-143.48;67.68;118439.88;5033827;28;20491;-76
2023/06/24 05:28:39;;;;;;;11.00;5.10;;;;;;;-143.48;65.80;118439.88;5033527;28;20029;-76
2023/06/24 05:31:05;;;;;;;8.10;4.75;;;;;;;-143.48;60.51;118439.88;5015571;28;20117;-76
2023/06/24 05:33:30;;;;;;;7.45;4.43;;;;;;;-143.48;54.26;118439.88;5015722;28;20026;-76
2023/06/24 05:35:56;;;;;;;7.70;4.40;;;;;;;-143.48;47.08;118439.88;5015677;28;20017;-76
2023/06/24 05:38:21;;;;;;;12.65;4.65;;;;;;;-143.48;45.73;118439.88;5016241;28;20021;-76
2023/06/24 05:40:47;;;;;;;6.65;4.03;;;;;;;-143.48;45.50;118439.88;5016132;28;20056;-76
2023/06/24 05:43:12;;;;;;;5.95;4.18;;;;;;;-143.48;43.66;118439.88;5033430;28;20037;-76
2023/06/24 05:45:37;;;;;;;7.35;4.40;;;;;;;-143.48;43.07;118439.88;5015451;28;20104;-76
2023/06/24 05:48:03;;;;;;;5.47;3.95;;;;;;;-143.48;43.10;118439.88;5015496;28;20035;-77
2023/06/24 05:50:28;;;;;;;6.93;3.95;;;;;;;-143.48;40.89;118439.88;5033498;28;20420;-76
2023/06/24 05:52:54;;;;;;;8.68;4.35;;;;;;;-143.48;43.25;118439.88;5015801;28;20021;-76
2023/06/24 05:55:19;;;;;;;7.07;3.78;;;;;;;-143.48;42.54;118439.88;5015560;28;20486;-76
2023/06/24 05:57:45;;;;;;;8.63;4.25;;;;;;;-143.48;41.84;118439.88;5015432;28;20076;-76
2023/06/24 06:00:11;;;;;;;6.20;3.92;;;;;;;-143.48;42.06;118439.88;5015407;28;20079;-76
2023/06/24 06:02:36;;;;;;;8.23;3.88;;;;;;;-143.48;42.07;118439.88;5016083;28;20532;-76
2023/06/24 06:05:03;;;;;;;6.82;3.97;;;;;;;-143.48;41.17;118439.88;5016061;28;20052;-77
2023/06/24 06:07:28;;;;;;;6.78;3.80;;;;;;;-143.48;41.82;118439.88;4999108;28;20056;-77
2023/06/24 06:09:55;;;;;;;8.15;4.10;;;;;;;-143.48;44.39;118439.88;5033949;28;20036;-77
2023/06/24 06:12:21;;;;;;;7.65;4.20;;;;;;;-143.48;43.34;118439.88;5032822;28;20025;-77
2023/06/24 06:14:46;;;;;;;8.60;4.03;;;;;;;-143.48;42.97;118439.88;5015224;28;20380;-77
2023/06/24 06:17:12;;;;;;;7.25;3.97;;;;;;;-143.48;42.22;118439.88;5032927;28;20037;-77
2023/06/24 06:19:39;;;;;;;8.20;3.80;;;;;;;-143.48;42.34;118439.88;5015155;28;20052;-77
2023/06/24 06:22:05;;;;;;;7.15;4.00;;;;;;;-143.48;42.99;118439.88;5032797;28;20025;-76
2023/06/24 06:24:30;;;;;;;7.30;4.10;;;;;;;-143.48;43.15;118439.88;5015046;28;20033;-77
2023/06/24 06:26:57;;;;;;;8.75;4.20;;;;;;;-143.48;43.03;118439.88;5032759;28;20120;-77
2023/06/24 06:29:26;;;;;;;9.82;4.05;;;;;;;-143.48;42.26;118439.88;5035296;28;20033;-77
2023/06/24 06:31:52;;;;;;;7.65;4.45;;;;;;;-143.48;41.84;118439.88;5016961;28;20589;-78
2023/06/24 06:34:18;;;;;;;6.82;3.72;;;;;;;-143.48;42.65;118439.88;5033842;28;20032;-77
2023/06/24 06:36:43;;;;;;;9.00;4.15;;;;;;;-143.48;44.41;118439.88;4999290;28;20135;-77
2023/06/24 06:39:09;;;;;;;8.85;3.97;;;;;;;-143.48;46.62;118439.88;5015602;28;20032;-77
2023/06/24 06:41:34;;;;;;;7.97;3.72;;;;;;;-143.48;46.57;118439.88;5033295;28;20092;-77
2023/06/24 06:44:00;;;;;;;6.93;3.90;;;;;;;-143.48;47.13;118439.88;5015287;28;20052;-77
2023/06/24 06:46:25;;;;;;;9.30;4.30;;;;;;;-143.48;47.07;118439.88;5032823;28;20025;-77
2023/06/24 06:48:50;;;;;;;7.18;4.10;;;;;;;-143.48;47.40;118439.88;5014981;28;20034;-77
2023/06/24 06:51:18;;;;;;;8.35;4.13;;;;;;;-143.48;48.12;118439.88;5032212;28;20079;-77
2023/06/24 06:53:43;;;;;;;7.93;3.88;;;;;;;-143.48;48.05;118439.88;5014856;28;20053;-77
2023/06/24 06:56:16;;;;;;;6.70;3.88;;;;;;;-143.48;47.08;118439.88;5014506;28;20068;-77
2023/06/24 06:58:41;;;;;;;7.25;4.30;;;;;;;-143.48;48.19;118439.88;5000376;28;20041;-77
2023/06/24 07:01:07;;;;;;;6.75;4.07;;;;;;;-143.48;47.38;118439.88;5034806;28;20469;-77
2023/06/24 07:03:32;;;;;;;11.02;3.88;;;;;;;-143.48;45.80;118439.88;5034809;28;20534;-77
2023/06/24 07:05:58;;;;;;;8.20;4.10;;;;;;;-143.48;46.86;118439.88;5034963;28;20029;-77
2023/06/24 07:08:24;;;;;;;6.03;3.78;;;;;;;-143.48;46.81;118439.88;5017462;28;20172;-77
2023/06/24 07:10:49;;;;;;;16.00;3.88;;;;;;;-143.48;46.43;118439.88;5035220;28;20026;-77
2023/06/24 07:13:14;;;;;;;8.30;3.97;;;;;;;-143.48;46.27;118439.88;5036097;28;20051;-77
2023/06/24 07:15:40;;;;;;;6.50;3.80;;;;;;;-143.48;46.60;118439.88;5018308;28;20116;-77
2023/06/24 07:18:05;;;;;;;9.20;4.10;;;;;;;-143.48;45.86;118439.88;5018085;28;20508;-77
2023/06/24 07:20:30;;;;;;;8.43;3.83;;;;;;;-143.48;45.80;118439.88;5018093;28;20033;-77
2023/06/24 07:22:56;;;;;;;8.65;4.20;;;;;;;-143.48;45.80;118439.88;5035746;28;20053;-77
2023/06/24 07:25:21;;;;;;;9.13;4.00;;;;;;;-143.48;45.78;118439.88;5035709;28;20014;-77
2023/06/24 07:27:46;;;;;;;6.68;3.80;;;;;;;-143.48;46.24;118439.88;5035638;28;20028;-77
2023/06/24 07:30:12;;;;;;;6.22;4.00;;;;;;;-143.48;44.60;118439.88;5017685;28;20073;-77
2023/06/24 07:32:37;;;;;;;7.15;3.72;;;;;;;-143.48;45.70;118439.88;5035520;28;20469;-77
2023/06/24 07:35:03;;;;;;;7.10;4.00;;;;;;;-143.48;44.33;118439.88;5035562;28;20388;-77
2023/06/24 07:37:28;;;;;;;12.38;4.45;;;;;;;-143.48;44.54;118439.88;5035474;28;20029;-77
2023/06/24 07:39:53;;;;;;;9.30;3.95;;;;;;;-143.48;45.09;118439.88;5035349;28;20384;-77
2023/06/24 07:42:19;;;;;;;10.05;4.07;;;;;;;-143.48;45.73;118439.88;5035316;28;20108;-78
2023/06/24 07:44:45;;;;;;;10.27;3.90;;;;;;;-143.48;44.47;118439.88;5037081;28;20075;-80
2023/06/24 07:47:11;;;;;;;7.05;3.95;;;;;;;-143.48;44.11;118439.88;5035869;28;20533;-78
2023/06/24 07:49:36;;;;;;;8.35;3.95;;;;;;;-143.48;43.68;118439.88;5017586;28;20112;-78
2023/06/24 07:52:02;;;;;;;9.88;4.38;;;;;;;-143.48;44.15;118439.88;5035257;28;20116;-77
2023/06/24 07:54:27;;;;;;;8.27;4.35;;;;;;;-143.48;45.22;118439.88;5035253;28;20025;-77
2023/06/24 07:56:52;;;;;;;11.50;4.45;;;;;;;-143.48;46.08;118439.88;5017495;28;20075;-79
2023/06/24 07:59:18;;;;;;;8.30;4.20;;;;;;;-143.48;43.96;118439.88;5035359;28;20107;-77
2023/06/24 08:01:43;;;;;;;6.22;3.88;;;;;;;-143.48;43.61;118439.88;5018645;28;20069;-77
2023/06/24 08:04:09;;;;;;;9.50;4.03;;;;;;;-143.48;44.24;118439.88;5035137;28;20116;-77
2023/06/24 08:06:34;;;;;;;10.82;4.22;;;;;;;-143.48;44.72;118439.88;5016858;28;20112;-76
2023/06/24 08:08:59;;;;;;;14.00;4.70;;;;;;;-143.48;42.81;118439.88;5033633;28;20515;-77
2023/06/24 08:11:25;;;;;;;6.38;4.20;;;;;;;-143.48;44.20;118439.88;5034182;28;20040;-76
2023/06/24 08:13:51;;;;;;;5.50;3.60;;;;;;;-143.48;42.91;118439.88;5035168;28;20052;-75
2023/06/24 08:16:18;;;;;;;8.80;4.40;;;;;;;-143.48;45.87;118439.88;5034484;28;20033;-76
2023/06/24 08:18:44;;;;;;;6.57;3.35;;;;;;;-143.48;41.88;118439.88;5034804;28;20033;-77
2023/06/24 08:21:09;;;;;;;7.88;4.35;;;;;;;-143.48;43.82;118439.88;5016841;28;20017;-75
2023/06/24 08:23:35;;;;;;;8.38;4.22;;;;;;;-143.48;43.74;118439.88;5034652;28;20136;-76
2023/06/24 08:26:00;;;;;;;8.75;4.05;;;;;;;-143.48;44.21;118439.88;5034798;28;20022;-75
2023/06/24 08:28:25;;;;;;;8.77;4.65;;;;;;;-143.48;44.96;118439.88;5016656;28;20448;-75
2023/06/24 08:30:50;;;;;;;11.05;4.20;;;;;;;-143.48;44.33;118439.88;5017004;28;20072;-76
2023/06/24 08:33:16;;;;;;;11.07;3.97;;;;;;;-143.48;42.90;118439.88;5016754;28;20045;-75
2023/06/24 08:35:41;;;;;;;7.97;4.50;;;;;;;-143.48;45.59;118439.88;5016484;28;20029;-75
2023/06/24 08:38:06;;;;;;;8.93;4.53;;;;;;;-143.48;43.86;118439.88;5016673;28;20029;-76
2023/06/24 08:40:32;;;;;;;7.68;4.28;;;;;;;-143.48;43.29;118439.88;5034425;28;20040;-75
2023/06/24 08:42:58;;;;;;;11.15;4.88;;;;;;;-143.48;43.03;118439.88;5035615;28;20523;-76
2023/06/24 08:45:23;;;;;;;6.80;4.50;;;;;;;-143.48;43.67;118439.88;5015325;28;20029;-78
2023/06/24 08:47:50;;;;;;;7.40;4.47;;;;;;;-143.48;45.21;118439.88;5015604;28;20037;-77
2023/06/24 08:50:18;;;;;;;9.57;5.18;;;;;;;-143.48;46.16;118439.88;5015696;28;20029;-77
2023/06/24 08:52:49;;;;;;;6.30;4.30;;;;;;;-143.48;44.21;118439.88;5001398;28;20029;-76
2023/06/24 08:55:17;;;;;;;8.63;5.30;;;;;;;-143.48;46.24;118439.88;5035124;28;20029;-79
2023/06/24 08:57:42;;;;;;;9.32;4.70;;;;;;;-143.48;43.58;118439.88;5017884;28;20030;-78
2023/06/24 09:00:11;;;;;;;13.68;4.13;;;;;;;-143.48;41.38;118439.88;5035207;28;20021;-81
2023/06/24 09:02:38;;;;;;;13.93;4.57;;;;;;;-143.48;41.77;118439.88;5035858;28;20033;-79
2023/06/24 09:05:05;;;;;;;10.27;4.32;;;;;;;-143.48;41.43;118439.88;5016634;28;20029;-77
2023/06/24 09:07:31;;;;;;;8.20;4.30;;;;;;;-143.48;40.62;118439.88;5017012;28;20496;-77
2023/06/24 09:09:56;;;;;;;8.27;3.70;;;;;;;-143.48;41.66;118439.88;5000177;28;20030;-78
2023/06/24 09:12:24;;;;;;;6.72;4.43;;;;;;;-143.48;40.82;118439.88;5034404;28;20092;-76
2023/06/24 09:14:50;;;;;;;6.30;4.32;;;;;;;-143.48;40.98;118439.88;5016437;28;20059;-76
2023/06/24 09:17:15;;;;;;;9.13;4.85;;;;;;;-143.48;42.15;118439.88;5035197;28;20028;-76
2023/06/24 09:19:42;;;;;;;8.93;4.60;;;;;;;-143.48;41.09;118439.88;5034290;28;20033;-78
2023/06/24 09:22:17;;;;;;;8.85;4.30;;;;;;;-143.48;42.46;118439.88;5016376;28;20032;-78
2023/06/24 09:24:44;;;;;;;7.10;4.40;;;;;;;-143.48;42.38;118439.88;5034232;28;20022;-76
2023/06/24 09:27:13;;;;;;;9.00;4.32;;;;;;;-143.48;41.22;118439.88;5016138;28;20029;-75
2023/06/24 09:29:38;;;;;;;8.93;4.03;;;;;;;-143.48;41.42;118439.88;5034431;28;20050;-76
2023/06/24 09:32:05;;;;;;;10.45;4.47;;;;;;;-143.48;42.56;118439.88;5033978;28;20017;-76
2023/06/24 09:34:31;;;;;;;6.65;4.32;;;;;;;-143.48;44.63;118439.88;5000344;28;20037;-76
2023/06/24 09:36:58;;;;;;;10.63;4.65;;;;;;;-143.48;42.96;118439.88;5033723;28;20515;-75
2023/06/24 09:39:29;;;;;;;7.38;4.35;;;;;;;-143.48;42.24;118439.88;5033530;28;20112;-76
2023/06/24 09:41:59;;;;;;;12.73;4.80;;;;;;;-143.48;41.42;118439.88;5016937;28;20351;-76
2023/06/24 09:44:26;;;;;;;9.70;3.90;;;;;;;-143.48;41.91;118439.88;5033578;28;20147;-76
2023/06/24 09:46:52;;;;;;;11.85;4.50;;;;;;;-143.48;41.63;118439.88;5033864;28;20030;-76
2023/06/24 09:49:17;;;;;;;9.25;4.18;;;;;;;-143.48;40.53;118439.88;5015998;28;20025;-77
2023/06/24 09:51:45;;;;;;;8.13;4.35;;;;;;;-143.48;41.53;118439.88;5016148;28;20027;-77
2023/06/24 09:54:12;;;;;;;9.48;4.22;;;;;;;-143.48;42.38;118439.88;5016088;28;20025;-76
2023/06/24 09:56:43;;;;;;;13.63;4.03;;;;;;;-143.48;39.67;118439.88;5032786;28;20064;-76
2023/06/24 09:59:10;;;;;;;10.17;5.10;;;;;;;-143.48;39.28;118439.88;5015662;28;20457;-76
2023/06/24 10:01:39;;;;;;;7.53;4.93;;;;;;;-143.48;40.28;118439.88;5015901;28;20025;-77
2023/06/24 10:04:08;;;;;;;9.52;4.70;;;;;;;-143.48;39.80;118439.88;5018285;28;20487;-77
2023/06/24 10:06:34;;;;;;;8.20;3.85;;;;;;;-143.48;39.70;118439.88;5016273;28;20104;-76
2023/06/24 10:09:00;;;;;;;10.70;4.93;;;;;;;-143.48;40.30;118439.88;5015755;28;20128;-76
2023/06/24 10:11:26;;;;;;;8.98;5.00;;;;;;;-143.48;39.41;118439.88;5015614;28;20029;-77
2023/06/24 10:13:52;;;;;;;8.70;4.03;;;;;;;-143.48;40.93;118439.88;5032902;28;20028;-76
2023/06/24 10:16:18;;;;;;;8.30;4.90;;;;;;;-143.48;41.17;118439.88;5015963;28;20018;-77
2023/06/24 10:18:44;;;;;;;8.98;4.63;;;;;;;-143.48;41.79;118439.88;4999053;28;20036;-76
2023/06/24 10:21:11;;;;;;;7.93;4.40;;;;;;;-143.48;41.15;118439.88;5015693;28;20036;-77
2023/06/24 10:23:48;;;;;;;8.63;4.30;;;;;;;-143.48;40.49;118439.88;5035344;28;20084;-78
2023/06/24 10:26:35;;;;;;;9.52;4.95;;;;;;;-143.48;39.02;118439.88;5017897;28;20045;-76
2023/06/24 10:29:06;;;;;;;13.35;5.25;;;;;;;-143.48;39.66;118439.88;5034915;28;20021;-76
2023/06/24 10:31:40;;;;;;;13.32;4.53;;;;;;;-143.48;39.92;118439.88;5017234;28;20056;-76
2023/06/24 10:34:28;;;;;;;8.32;5.05;;;;;;;-143.48;39.78;118439.88;5019374;28;20064;-77
2023/06/24 10:37:19;;;;;;;10.38;5.30;;;;;;;-143.48;39.55;118439.88;5020038;28;20021;-75
2023/06/24 10:39:56;;;;;;;13.00;4.40;;;;;;;-143.48;39.74;118439.88;5036574;28;20036;-75
2023/06/24 10:42:36;;;;;;;10.73;4.43;;;;;;;-143.48;39.52;118439.88;5018956;28;20025;-75
2023/06/24 10:45:14;;;;;;;7.18;3.97;;;;;;;-143.48;39.61;118439.88;5036418;28;20033;-76
2023/06/24 10:47:44;;;;;;;7.18;4.10;;;;;;;-143.48;38.55;118439.88;5017995;28;20109;-76
2023/06/24 10:50:15;;;;;;;7.90;4.00;;;;;;;-143.48;38.87;118439.88;5036299;28;20029;-75
2023/06/24 10:52:42;;;;;;;8.50;4.20;;;;;;;-143.48;38.94;118439.88;5018483;28;20036;-76
2023/06/24 10:55:08;;;;;;;11.43;5.18;;;;;;;-143.48;39.91;118439.88;5017157;28;20491;-76
2023/06/24 10:57:35;;;;;;;10.93;4.68;;;;;;;-143.48;38.27;118439.88;5033990;28;20029;-75
2023/06/24 11:00:01;;;;;;;8.45;4.05;;;;;;;-143.48;37.97;118439.88;5016605;28;20021;-76
2023/06/24 11:02:27;;;;;;;8.55;4.55;;;;;;;-143.48;38.90;118439.88;5016830;28;20021;-75
2023/06/24 11:04:55;;;;;;;7.72;3.83;;;;;;;-143.48;39.12;118439.88;5016420;28;20029;-75
2023/06/24 11:07:30;;;;;;;8.27;3.92;;;;;;;-143.48;37.55;118439.88;5034974;28;20393;-76